Terminal Aerodrome Forecast
Issued by NWS North Platte, NE

Home | Current Version | Previous Version | Text Only | Print | Product List | Glossary Off
Versions: 1 2 3 4 5 6 7 8 9 10 11 12 13 14 15 16 17 18 19 20

000
FTUS43 KLBF 270500
TAFVTN
TAF
KVTN 270520Z 2706/2806 23004KT P6SM BKN200
     FM271400 19010KT P6SM SCT090 BKN200
     FM271800 17014G21KT P6SM BKN060 OVC090
      TEMPO 2719/2723 -TSRA BKN050CB
     FM280000 16014G22KT P6SM SCT070 BKN200=

USA.gov is the U.S. government's official web portal to all federal, state and local government web resources and services.